sensor_id;sensor_type;location;lat;lon;timestamp;temperature;humidity
981;DHT22;479;53.514;9.994;2023-02-02T00:01:10;6.20;99.90
981;DHT22;479;53.514;9.994;2023-02-02T00:03:38;6.20;99.90
981;DHT22;479;53.514;9.994;2023-02-02T00:06:05;6.20;99.90
981;DHT22;479;53.514;9.994;2023-02-02T00:08:32;6.20;99.90
981;DHT22;479;53.514;9.994;2023-02-02T00:11:01;6.20;99.90
981;DHT22;479;53.514;9.994;2023-02-02T00:13:28;6.20;99.90
981;DHT22;479;53.514;9.994;2023-02-02T00:15:54;6.20;99.90
981;DHT22;479;53.514;9.994;2023-02-02T00:18:21;6.20;99.90
981;DHT22;479;53.514;9.994;2023-02-02T00:20:50;6.20;99.90
981;DHT22;479;53.514;9.994;2023-02-02T00:23:18;6.20;99.90
981;DHT22;479;53.514;9.994;2023-02-02T00:25:48;6.20;99.90
981;DHT22;479;53.514;9.994;2023-02-02T00:28:15;6.20;99.90
981;DHT22;479;53.514;9.994;2023-02-02T00:30:42;6.20;99.90
981;DHT22;479;53.514;9.994;2023-02-02T00:33:10;6.20;99.90
981;DHT22;479;53.514;9.994;2023-02-02T00:35:39;6.20;99.90
981;DHT22;479;53.514;9.994;2023-02-02T00:38:08;6.10;99.90
981;DHT22;479;53.514;9.994;2023-02-02T00:40:34;6.10;99.90
981;DHT22;479;53.514;9.994;2023-02-02T00:43:01;6.10;99.90
981;DHT22;479;53.514;9.994;2023-02-02T00:45:29;6.00;99.90
981;DHT22;479;53.514;9.994;2023-02-02T00:47:55;5.90;99.90
981;DHT22;479;53.514;9.994;2023-02-02T00:50:22;5.90;99.90
981;DHT22;479;53.514;9.994;2023-02-02T00:52:49;5.90;99.90
981;DHT22;479;53.514;9.994;2023-02-02T00:55:18;5.90;99.90
981;DHT22;479;53.514;9.994;2023-02-02T00:57:45;6.00;99.90
981;DHT22;479;53.514;9.994;2023-02-02T01:00:14;6.00;99.90
981;DHT22;479;53.514;9.994;2023-02-02T01:02:42;6.00;99.90
981;DHT22;479;53.514;9.994;2023-02-02T01:05:10;6.00;99.90
981;DHT22;479;53.514;9.994;2023-02-02T01:07:37;6.00;99.90
981;DHT22;479;53.514;9.994;2023-02-02T01:10:05;6.00;99.90
981;DHT22;479;53.514;9.994;2023-02-02T01:12:34;5.90;99.90
981;DHT22;479;53.514;9.994;2023-02-02T01:15:01;5.90;99.90
981;DHT22;479;53.514;9.994;2023-02-02T01:17:31;5.90;99.90
981;DHT22;479;53.514;9.994;2023-02-02T01:19:58;5.90;99.90
981;DHT22;479;53.514;9.994;2023-02-02T01:22:25;5.90;99.90
981;DHT22;479;53.514;9.994;2023-02-02T01:24:52;5.80;99.90
981;DHT22;479;53.514;9.994;2023-02-02T01:27:18;5.80;99.90
981;DHT22;479;53.514;9.994;2023-02-02T01:29:47;5.70;99.90
981;DHT22;479;53.514;9.994;2023-02-02T01:32:14;5.70;99.90
981;DHT22;479;53.514;9.994;2023-02-02T01:34:40;5.70;99.90
981;DHT22;479;53.514;9.994;2023-02-02T01:37:10;5.70;99.90
981;DHT22;479;53.514;9.994;2023-02-02T01:39:37;5.80;99.90
981;DHT22;479;53.514;9.994;2023-02-02T01:42:11;5.80;99.90
981;DHT22;479;53.514;9.994;2023-02-02T01:45:15;5.80;99.90
981;DHT22;479;53.514;9.994;2023-02-02T01:47:46;5.80;99.90
981;DHT22;479;53.514;9.994;2023-02-02T01:50:16;5.90;99.90
981;DHT22;479;53.514;9.994;2023-02-02T01:52:45;5.90;99.90
981;DHT22;479;53.514;9.994;2023-02-02T01:55:15;5.90;99.90
981;DHT22;479;53.514;9.994;2023-02-02T01:57:48;5.90;99.90
981;DHT22;479;53.514;9.994;2023-02-02T02:00:18;5.90;99.90
981;DHT22;479;53.514;9.994;2023-02-02T02:02:51;5.90;99.90
981;DHT22;479;53.514;9.994;2023-02-02T02:05:28;5.80;99.90
981;DHT22;479;53.514;9.994;2023-02-02T02:08:05;5.50;99.90
981;DHT22;479;53.514;9.994;2023-02-02T02:10:33;5.30;99.90
981;DHT22;479;53.514;9.994;2023-02-02T02:13:00;5.30;99.90
981;DHT22;479;53.514;9.994;2023-02-02T02:15:33;5.30;99.90
981;DHT22;479;53.514;9.994;2023-02-02T02:18:29;5.40;99.90
981;DHT22;479;53.514;9.994;2023-02-02T02:21:24;5.40;99.90
981;DHT22;479;53.514;9.994;2023-02-02T02:24:48;5.50;99.90
981;DHT22;479;53.514;9.994;2023-02-02T02:33:49;5.60;99.90
981;DHT22;479;53.514;9.994;2023-02-02T02:36:31;5.60;99.90
981;DHT22;479;53.514;9.994;2023-02-02T02:39:04;5.60;99.90
981;DHT22;479;53.514;9.994;2023-02-02T02:41:37;5.50;99.90
981;DHT22;479;53.514;9.994;2023-02-02T02:44:09;5.50;99.90
981;DHT22;479;53.514;9.994;2023-02-02T02:46:37;5.50;99.90
981;DHT22;479;53.514;9.994;2023-02-02T02:49:07;5.60;99.90
981;DHT22;479;53.514;9.994;2023-02-02T02:51:41;5.50;99.90
981;DHT22;479;53.514;9.994;2023-02-02T02:54:11;5.50;99.90
981;DHT22;479;53.514;9.994;2023-02-02T02:56:47;5.50;99.90
981;DHT22;479;53.514;9.994;2023-02-02T02:59:28;5.50;99.90
981;DHT22;479;53.514;9.994;2023-02-02T03:02:07;5.60;99.90
981;DHT22;479;53.514;9.994;2023-02-02T03:04:50;5.60;99.90
981;DHT22;479;53.514;9.994;2023-02-02T03:07:25;5.70;99.90
981;DHT22;479;53.514;9.994;2023-02-02T03:09:54;5.70;99.90
981;DHT22;479;53.514;9.994;2023-02-02T03:12:22;5.70;99.90
981;DHT22;479;53.514;9.994;2023-02-02T03:14:49;5.80;99.90
981;DHT22;479;53.514;9.994;2023-02-02T03:17:16;5.90;99.90
981;DHT22;479;53.514;9.994;2023-02-02T03:19:44;5.70;99.90
981;DHT22;479;53.514;9.994;2023-02-02T03:22:11;5.70;99.90
981;DHT22;479;53.514;9.994;2023-02-02T03:24:38;5.70;99.90
981;DHT22;479;53.514;9.994;2023-02-02T03:27:05;5.70;99.90
981;DHT22;479;53.514;9.994;2023-02-02T03:29:32;5.60;99.90
981;DHT22;479;53.514;9.994;2023-02-02T03:31:59;5.70;99.90
981;DHT22;479;53.514;9.994;2023-02-02T03:34:26;5.70;99.90
981;DHT22;479;53.514;9.994;2023-02-02T03:36:54;5.70;99.90
981;DHT22;479;53.514;9.994;2023-02-02T03:39:20;5.70;99.90
981;DHT22;479;53.514;9.994;2023-02-02T03:41:47;5.70;99.90
981;DHT22;479;53.514;9.994;2023-02-02T03:44:14;5.70;99.90
981;DHT22;479;53.514;9.994;2023-02-02T03:46:41;5.70;99.90
981;DHT22;479;53.514;9.994;2023-02-02T03:49:08;5.60;99.90
981;DHT22;479;53.514;9.994;2023-02-02T03:51:35;5.60;99.90
981;DHT22;479;53.514;9.994;2023-02-02T03:54:03;5.60;99.90
981;DHT22;479;53.514;9.994;2023-02-02T03:56:30;5.50;99.90
981;DHT22;479;53.514;9.994;2023-02-02T03:58:57;5.50;99.90
981;DHT22;479;53.514;9.994;2023-02-02T04:01:26;5.50;99.90
981;DHT22;479;53.514;9.994;2023-02-02T04:03:54;5.50;99.90
981;DHT22;479;53.514;9.994;2023-02-02T04:06:22;5.50;99.90
981;DHT22;479;53.514;9.994;2023-02-02T04:08:49;5.40;99.90
981;DHT22;479;53.514;9.994;2023-02-02T04:11:18;5.40;99.90
981;DHT22;479;53.514;9.994;2023-02-02T04:13:45;5.40;99.90
981;DHT22;479;53.514;9.994;2023-02-02T04:16:12;5.40;99.90
981;DHT22;479;53.514;9.994;2023-02-02T04:18:39;5.40;99.90
981;DHT22;479;53.514;9.994;2023-02-02T04:21:07;5.50;99.90
981;DHT22;479;53.514;9.994;2023-02-02T04:23:34;5.50;99.90
981;DHT22;479;53.514;9.994;2023-02-02T04:26:01;5.50;99.90
981;DHT22;479;53.514;9.994;2023-02-02T04:28:30;5.60;99.90
981;DHT22;479;53.514;9.994;2023-02-02T04:30:57;5.50;99.90
981;DHT22;479;53.514;9.994;2023-02-02T04:33:26;5.60;99.90
981;DHT22;479;53.514;9.994;2023-02-02T04:35:54;5.60;99.90
981;DHT22;479;53.514;9.994;2023-02-02T04:38:21;5.60;99.90
981;DHT22;479;53.514;9.994;2023-02-02T04:40:48;5.60;99.90
981;DHT22;479;53.514;9.994;2023-02-02T04:43:15;5.60;99.90
981;DHT22;479;53.514;9.994;2023-02-02T04:45:43;5.60;99.90
981;DHT22;479;53.514;9.994;2023-02-02T04:48:10;5.60;99.90
981;DHT22;479;53.514;9.994;2023-02-02T04:50:37;5.50;99.90
981;DHT22;479;53.514;9.994;2023-02-02T04:53:04;5.50;99.90
981;DHT22;479;53.514;9.994;2023-02-02T04:55:35;5.50;99.90
981;DHT22;479;53.514;9.994;2023-02-02T04:58:02;5.60;99.90
981;DHT22;479;53.514;9.994;2023-02-02T05:00:29;5.50;99.90
981;DHT22;479;53.514;9.994;2023-02-02T05:02:57;5.60;99.90
981;DHT22;479;53.514;9.994;2023-02-02T05:05:24;5.60;99.90
981;DHT22;479;53.514;9.994;2023-02-02T05:07:51;5.60;99.90
981;DHT22;479;53.514;9.994;2023-02-02T05:10:18;5.60;99.90
981;DHT22;479;53.514;9.994;2023-02-02T05:12:44;5.60;99.90
981;DHT22;479;53.514;9.994;2023-02-02T05:15:11;5.70;99.90
981;DHT22;479;53.514;9.994;2023-02-02T05:17:38;5.70;99.90
981;DHT22;479;53.514;9.994;2023-02-02T05:20:08;5.60;99.90
981;DHT22;479;53.514;9.994;2023-02-02T05:22:35;5.50;99.90
981;DHT22;479;53.514;9.994;2023-02-02T05:25:01;5.50;99.90
981;DHT22;479;53.514;9.994;2023-02-02T05:27:28;5.50;99.90
981;DHT22;479;53.514;9.994;2023-02-02T05:29:55;5.60;99.90
981;DHT22;479;53.514;9.994;2023-02-02T05:32:22;5.60;99.90
981;DHT22;479;53.514;9.994;2023-02-02T05:34:49;5.60;99.90
981;DHT22;479;53.514;9.994;2023-02-02T05:37:17;5.60;99.90
981;DHT22;479;53.514;9.994;2023-02-02T05:39:44;5.60;99.90
981;DHT22;479;53.514;9.994;2023-02-02T05:42:10;5.60;99.90
981;DHT22;479;53.514;9.994;2023-02-02T05:44:37;5.60;99.90
981;DHT22;479;53.514;9.994;2023-02-02T05:47:04;5.60;99.90
981;DHT22;479;53.514;9.994;2023-02-02T05:49:31;5.60;99.90
981;DHT22;479;53.514;9.994;2023-02-02T05:51:58;5.60;99.90
981;DHT22;479;53.514;9.994;2023-02-02T05:54:26;5.70;99.90
981;DHT22;479;53.514;9.994;2023-02-02T05:56:53;5.70;99.90
981;DHT22;479;53.514;9.994;2023-02-02T05:59:21;5.70;99.90
981;DHT22;479;53.514;9.994;2023-02-02T06:01:48;5.70;99.90
981;DHT22;479;53.514;9.994;2023-02-02T06:04:15;5.70;99.90
981;DHT22;479;53.514;9.994;2023-02-02T06:06:42;5.70;99.90
981;DHT22;479;53.514;9.994;2023-02-02T06:09:10;5.70;99.90
981;DHT22;479;53.514;9.994;2023-02-02T06:11:38;5.70;99.90
981;DHT22;479;53.514;9.994;2023-02-02T06:14:05;5.80;99.90
981;DHT22;479;53.514;9.994;2023-02-02T06:16:33;5.80;99.90
981;DHT22;479;53.514;9.994;2023-02-02T06:18:59;5.80;99.90
981;DHT22;479;53.514;9.994;2023-02-02T06:21:27;5.80;99.90
981;DHT22;479;53.514;9.994;2023-02-02T06:23:56;5.80;99.90
981;DHT22;479;53.514;9.994;2023-02-02T06:26:23;5.70;99.90
981;DHT22;479;53.514;9.994;2023-02-02T06:28:53;5.70;99.90
981;DHT22;479;53.514;9.994;2023-02-02T06:31:20;5.70;99.90
981;DHT22;479;53.514;9.994;2023-02-02T06:33:52;5.70;99.90
981;DHT22;479;53.514;9.994;2023-02-02T06:36:20;5.70;99.90
981;DHT22;479;53.514;9.994;2023-02-02T06:38:48;5.70;99.90
981;DHT22;479;53.514;9.994;2023-02-02T06:41:16;5.70;99.90
981;DHT22;479;53.514;9.994;2023-02-02T06:43:42;5.70;99.90
981;DHT22;479;53.514;9.994;2023-02-02T06:46:11;5.70;99.90
981;DHT22;479;53.514;9.994;2023-02-02T06:48:38;5.70;99.90
981;DHT22;479;53.514;9.994;2023-02-02T06:51:05;5.80;99.90
981;DHT22;479;53.514;9.994;2023-02-02T06:53:34;5.80;99.90
981;DHT22;479;53.514;9.994;2023-02-02T06:56:03;5.80;99.90
981;DHT22;479;53.514;9.994;2023-02-02T06:58:31;5.80;99.90
981;DHT22;479;53.514;9.994;2023-02-02T07:01:02;5.80;99.90
981;DHT22;479;53.514;9.994;2023-02-02T07:03:31;5.80;99.90
981;DHT22;479;53.514;9.994;2023-02-02T07:05:58;5.80;99.90
981;DHT22;479;53.514;9.994;2023-02-02T07:08:25;5.80;99.90
981;DHT22;479;53.514;9.994;2023-02-02T07:10:52;5.80;99.90
981;DHT22;479;53.514;9.994;2023-02-02T07:13:19;5.80;99.90
981;DHT22;479;53.514;9.994;2023-02-02T07:15:46;5.80;99.90
981;DHT22;479;53.514;9.994;2023-02-02T07:18:15;5.80;99.90
981;DHT22;479;53.514;9.994;2023-02-02T07:20:44;5.80;99.90
981;DHT22;479;53.514;9.994;2023-02-02T07:23:10;5.80;99.90
981;DHT22;479;53.514;9.994;2023-02-02T07:25:37;5.70;99.90
981;DHT22;479;53.514;9.994;2023-02-02T07:28:04;5.80;99.90
981;DHT22;479;53.514;9.994;2023-02-02T07:30:31;5.70;99.90
981;DHT22;479;53.514;9.994;2023-02-02T07:32:58;5.80;99.90
981;DHT22;479;53.514;9.994;2023-02-02T07:35:26;5.80;99.90
981;DHT22;479;53.514;9.994;2023-02-02T07:37:55;5.70;99.90
981;DHT22;479;53.514;9.994;2023-02-02T07:40:22;5.70;99.90
981;DHT22;479;53.514;9.994;2023-02-02T07:42:49;5.70;99.90
981;DHT22;479;53.514;9.994;2023-02-02T07:45:16;5.70;99.90
981;DHT22;479;53.514;9.994;2023-02-02T07:47:43;5.70;99.90
981;DHT22;479;53.514;9.994;2023-02-02T07:50:10;5.70;99.90
981;DHT22;479;53.514;9.994;2023-02-02T07:52:37;5.60;99.90
981;DHT22;479;53.514;9.994;2023-02-02T07:55:06;5.70;99.90
981;DHT22;479;53.514;9.994;2023-02-02T07:57:33;5.70;99.90
981;DHT22;479;53.514;9.994;2023-02-02T08:00:00;5.70;99.90
981;DHT22;479;53.514;9.994;2023-02-02T08:02:27;5.80;99.90
981;DHT22;479;53.514;9.994;2023-02-02T08:04:54;5.90;99.90
981;DHT22;479;53.514;9.994;2023-02-02T08:07:30;6.00;99.90
981;DHT22;479;53.514;9.994;2023-02-02T08:09:59;6.10;99.90
981;DHT22;479;53.514;9.994;2023-02-02T08:12:27;6.10;99.90
981;DHT22;479;53.514;9.994;2023-02-02T08:14:54;6.10;99.90
981;DHT22;479;53.514;9.994;2023-02-02T08:17:21;6.20;99.90
981;DHT22;479;53.514;9.994;2023-02-02T08:19:48;6.30;99.90
981;DHT22;479;53.514;9.994;2023-02-02T08:22:15;6.20;99.90
981;DHT22;479;53.514;9.994;2023-02-02T08:24:42;6.20;99.90
981;DHT22;479;53.514;9.994;2023-02-02T08:27:09;6.30;99.90
981;DHT22;479;53.514;9.994;2023-02-02T08:29:38;6.50;99.90
981;DHT22;479;53.514;9.994;2023-02-02T08:32:05;6.70;99.90
981;DHT22;479;53.514;9.994;2023-02-02T08:34:32;6.90;99.90
981;DHT22;479;53.514;9.994;2023-02-02T08:37:01;7.00;99.90
981;DHT22;479;53.514;9.994;2023-02-02T08:39:28;7.30;99.90
981;DHT22;479;53.514;9.994;2023-02-02T08:41:55;7.50;99.90
981;DHT22;479;53.514;9.994;2023-02-02T08:44:22;7.60;99.90
981;DHT22;479;53.514;9.994;2023-02-02T08:46:50;7.70;99.90
981;DHT22;479;53.514;9.994;2023-02-02T08:49:17;7.70;99.90
981;DHT22;479;53.514;9.994;2023-02-02T08:51:44;7.70;99.90
981;DHT22;479;53.514;9.994;2023-02-02T08:54:11;7.80;99.90
981;DHT22;479;53.514;9.994;2023-02-02T08:56:38;7.80;99.90
981;DHT22;479;53.514;9.994;2023-02-02T08:59:05;7.70;99.90
981;DHT22;479;53.514;9.994;2023-02-02T09:01:33;7.70;99.90
981;DHT22;479;53.514;9.994;2023-02-02T09:04:04;7.90;99.90
981;DHT22;479;53.514;9.994;2023-02-02T09:06:33;8.10;99.90
981;DHT22;479;53.514;9.994;2023-02-02T09:09:01;8.30;99.90
981;DHT22;479;53.514;9.994;2023-02-02T09:11:29;8.40;99.90
981;DHT22;479;53.514;9.994;2023-02-02T09:13:57;8.40;99.90
981;DHT22;479;53.514;9.994;2023-02-02T09:16:26;8.60;99.90
981;DHT22;479;53.514;9.994;2023-02-02T09:18:54;8.70;99.90
981;DHT22;479;53.514;9.994;2023-02-02T09:21:23;8.60;99.90
981;DHT22;479;53.514;9.994;2023-02-02T09:23:51;8.50;99.90
981;DHT22;479;53.514;9.994;2023-02-02T09:26:20;8.20;99.90
981;DHT22;479;53.514;9.994;2023-02-02T09:28:49;8.30;99.90
981;DHT22;479;53.514;9.994;2023-02-02T09:31:17;8.80;99.90
981;DHT22;479;53.514;9.994;2023-02-02T09:33:44;9.00;99.90
981;DHT22;479;53.514;9.994;2023-02-02T09:36:12;8.50;99.90
981;DHT22;479;53.514;9.994;2023-02-02T09:38:41;8.20;99.90
981;DHT22;479;53.514;9.994;2023-02-02T09:41:19;8.00;99.90
981;DHT22;479;53.514;9.994;2023-02-02T09:43:53;8.00;99.90
981;DHT22;479;53.514;9.994;2023-02-02T09:46:29;8.50;99.90
981;DHT22;479;53.514;9.994;2023-02-02T09:49:00;9.10;99.90
981;DHT22;479;53.514;9.994;2023-02-02T09:51:32;9.10;99.90
981;DHT22;479;53.514;9.994;2023-02-02T09:54:09;9.00;99.90
981;DHT22;479;53.514;9.994;2023-02-02T09:56:40;9.10;99.90
981;DHT22;479;53.514;9.994;2023-02-02T09:59:15;8.70;99.90
981;DHT22;479;53.514;9.994;2023-02-02T10:01:46;8.80;99.90
981;DHT22;479;53.514;9.994;2023-02-02T10:04:18;8.80;99.90
981;DHT22;479;53.514;9.994;2023-02-02T10:06:49;9.10;99.90
981;DHT22;479;53.514;9.994;2023-02-02T10:09:29;9.10;99.90
981;DHT22;479;53.514;9.994;2023-02-02T10:12:04;9.10;99.90
981;DHT22;479;53.514;9.994;2023-02-02T10:14:35;9.20;99.90
981;DHT22;479;53.514;9.994;2023-02-02T10:17:14;9.60;99.90
981;DHT22;479;53.514;9.994;2023-02-02T10:19:44;10.00;99.90
981;DHT22;479;53.514;9.994;2023-02-02T10:22:15;10.10;99.90
981;DHT22;479;53.514;9.994;2023-02-02T10:24:45;10.50;99.90
981;DHT22;479;53.514;9.994;2023-02-02T10:27:14;10.80;99.90
981;DHT22;479;53.514;9.994;2023-02-02T10:29:49;10.70;99.90
981;DHT22;479;53.514;9.994;2023-02-02T10:32:22;10.40;99.90
981;DHT22;479;53.514;9.994;2023-02-02T10:34:59;10.40;99.90
981;DHT22;479;53.514;9.994;2023-02-02T10:37:33;10.60;99.90
981;DHT22;479;53.514;9.994;2023-02-02T10:40:15;10.80;99.90
981;DHT22;479;53.514;9.994;2023-02-02T10:42:55;10.40;99.90
981;DHT22;479;53.514;9.994;2023-02-02T10:45:47;10.30;99.90
981;DHT22;479;53.514;9.994;2023-02-02T10:48:18;10.20;99.90
981;DHT22;479;53.514;9.994;2023-02-02T10:50:48;9.80;99.90
981;DHT22;479;53.514;9.994;2023-02-02T10:53:16;10.00;99.90
981;DHT22;479;53.514;9.994;2023-02-02T10:55:49;10.30;99.90
981;DHT22;479;53.514;9.994;2023-02-02T10:58:22;10.20;99.90
981;DHT22;479;53.514;9.994;2023-02-02T11:00:53;10.30;99.90
981;DHT22;479;53.514;9.994;2023-02-02T11:03:22;10.50;99.90
981;DHT22;479;53.514;9.994;2023-02-02T11:05:51;10.50;99.90
981;DHT22;479;53.514;9.994;2023-02-02T11:08:38;10.00;99.90
981;DHT22;479;53.514;9.994;2023-02-02T11:11:15;9.70;99.90
981;DHT22;479;53.514;9.994;2023-02-02T11:13:47;9.40;99.90
981;DHT22;479;53.514;9.994;2023-02-02T11:16:22;9.20;99.90
981;DHT22;479;53.514;9.994;2023-02-02T11:18:49;9.00;99.90
981;DHT22;479;53.514;9.994;2023-02-02T11:21:18;8.90;99.90
981;DHT22;479;53.514;9.994;2023-02-02T11:23:56;9.40;99.90
981;DHT22;479;53.514;9.994;2023-02-02T11:26:27;9.40;99.90
981;DHT22;479;53.514;9.994;2023-02-02T11:29:12;9.40;99.90
981;DHT22;479;53.514;9.994;2023-02-02T11:31:40;9.50;99.90
981;DHT22;479;53.514;9.994;2023-02-02T11:34:12;9.50;99.90
981;DHT22;479;53.514;9.994;2023-02-02T11:36:59;9.50;99.90
981;DHT22;479;53.514;9.994;2023-02-02T11:39:26;9.40;99.90
981;DHT22;479;53.514;9.994;2023-02-02T11:42:04;9.30;99.90
981;DHT22;479;53.514;9.994;2023-02-02T11:44:32;9.10;99.90
981;DHT22;479;53.514;9.994;2023-02-02T11:47:02;9.50;99.90
981;DHT22;479;53.514;9.994;2023-02-02T11:49:37;9.80;99.90
981;DHT22;479;53.514;9.994;2023-02-02T11:52:15;10.10;99.90
981;DHT22;479;53.514;9.994;2023-02-02T11:54:46;9.70;99.90
981;DHT22;479;53.514;9.994;2023-02-02T11:57:18;9.50;99.90
981;DHT22;479;53.514;9.994;2023-02-02T11:59:47;9.30;99.90
981;DHT22;479;53.514;9.994;2023-02-02T12:02:36;8.90;99.90
981;DHT22;479;53.514;9.994;2023-02-02T12:05:31;9.00;99.90
981;DHT22;479;53.514;9.994;2023-02-02T12:07:59;9.00;99.90
981;DHT22;479;53.514;9.994;2023-02-02T12:10:28;8.80;99.90
981;DHT22;479;53.514;9.994;2023-02-02T12:13:04;8.70;99.90
981;DHT22;479;53.514;9.994;2023-02-02T12:15:43;8.80;99.90
981;DHT22;479;53.514;9.994;2023-02-02T12:18:20;9.00;99.90
981;DHT22;479;53.514;9.994;2023-02-02T12:20:55;9.20;99.90
981;DHT22;479;53.514;9.994;2023-02-02T12:23:47;9.30;99.90
981;DHT22;479;53.514;9.994;2023-02-02T12:26:27;9.20;99.90
981;DHT22;479;53.514;9.994;2023-02-02T12:29:14;9.10;99.90
981;DHT22;479;53.514;9.994;2023-02-02T12:31:55;9.00;99.90
981;DHT22;479;53.514;9.994;2023-02-02T12:34:31;8.80;99.90
981;DHT22;479;53.514;9.994;2023-02-02T12:37:06;8.70;99.90
981;DHT22;479;53.514;9.994;2023-02-02T12:39:42;8.80;99.90
981;DHT22;479;53.514;9.994;2023-02-02T12:42:40;8.90;99.90
981;DHT22;479;53.514;9.994;2023-02-02T12:45:29;9.00;99.90
981;DHT22;479;53.514;9.994;2023-02-02T12:48:12;9.00;99.90
981;DHT22;479;53.514;9.994;2023-02-02T12:50:53;8.80;99.90
981;DHT22;479;53.514;9.994;2023-02-02T12:53:36;8.70;99.90
981;DHT22;479;53.514;9.994;2023-02-02T12:56:12;8.90;99.90
981;DHT22;479;53.514;9.994;2023-02-02T12:58:47;9.10;99.90
981;DHT22;479;53.514;9.994;2023-02-02T13:01:22;9.00;99.90
981;DHT22;479;53.514;9.994;2023-02-02T13:04:32;8.80;99.90
981;DHT22;479;53.514;9.994;2023-02-02T13:07:25;8.70;99.90
981;DHT22;479;53.514;9.994;2023-02-02T13:10:01;8.90;99.90
981;DHT22;479;53.514;9.994;2023-02-02T13:12:34;8.80;99.90
981;DHT22;479;53.514;9.994;2023-02-02T13:15:06;8.70;99.90
981;DHT22;479;53.514;9.994;2023-02-02T13:17:39;8.70;99.90
981;DHT22;479;53.514;9.994;2023-02-02T13:20:19;8.80;99.90
981;DHT22;479;53.514;9.994;2023-02-02T13:22:52;9.00;99.90
981;DHT22;479;53.514;9.994;2023-02-02T13:25:24;8.80;99.90
981;DHT22;479;53.514;9.994;2023-02-02T13:27:52;8.80;99.90
981;DHT22;479;53.514;9.994;2023-02-02T13:30:27;8.70;99.90
981;DHT22;479;53.514;9.994;2023-02-02T13:32:59;8.50;99.90
981;DHT22;479;53.514;9.994;2023-02-02T13:35:31;8.60;99.90
981;DHT22;479;53.514;9.994;2023-02-02T13:38:06;8.60;99.90
981;DHT22;479;53.514;9.994;2023-02-02T13:40:38;8.70;99.90
981;DHT22;479;53.514;9.994;2023-02-02T13:43:16;8.80;99.90
981;DHT22;479;53.514;9.994;2023-02-02T13:45:49;8.70;99.90
981;DHT22;479;53.514;9.994;2023-02-02T13:48:30;8.60;99.90
981;DHT22;479;53.514;9.994;2023-02-02T13:54:27;8.50;99.90
981;DHT22;479;53.514;9.994;2023-02-02T13:57:08;8.40;99.90
981;DHT22;479;53.514;9.994;2023-02-02T13:59:51;8.50;99.90
981;DHT22;479;53.514;9.994;2023-02-02T14:02:28;8.50;99.90
981;DHT22;479;53.514;9.994;2023-02-02T14:04:58;8.50;99.90
981;DHT22;479;53.514;9.994;2023-02-02T14:07:29;8.50;99.90
981;DHT22;479;53.514;9.994;2023-02-02T14:09:58;8.50;99.90
981;DHT22;479;53.514;9.994;2023-02-02T14:12:31;8.50;99.90
981;DHT22;479;53.514;9.994;2023-02-02T14:14:58;8.60;99.90
981;DHT22;479;53.514;9.994;2023-02-02T14:17:51;8.60;99.90
981;DHT22;479;53.514;9.994;2023-02-02T14:20:43;8.60;99.90
981;DHT22;479;53.514;9.994;2023-02-02T14:29:02;8.50;99.90
981;DHT22;479;53.514;9.994;2023-02-02T14:31:42;8.50;99.90
981;DHT22;479;53.514;9.994;2023-02-02T14:34:26;8.50;99.90
981;DHT22;479;53.514;9.994;2023-02-02T14:37:04;8.40;99.90
981;DHT22;479;53.514;9.994;2023-02-02T14:39:40;8.30;99.90
981;DHT22;479;53.514;9.994;2023-02-02T14:42:21;8.20;99.90
981;DHT22;479;53.514;9.994;2023-02-02T14:45:21;8.20;99.90
981;DHT22;479;53.514;9.994;2023-02-02T14:47:51;8.10;99.90
981;DHT22;479;53.514;9.994;2023-02-02T14:50:23;8.20;99.90
981;DHT22;479;53.514;9.994;2023-02-02T14:53:04;8.20;99.90
981;DHT22;479;53.514;9.994;2023-02-02T14:55:32;8.30;99.90
981;DHT22;479;53.514;9.994;2023-02-02T14:58:01;8.20;99.90
981;DHT22;479;53.514;9.994;2023-02-02T15:00:31;8.30;99.90
981;DHT22;479;53.514;9.994;2023-02-02T15:03:31;8.30;99.90
981;DHT22;479;53.514;9.994;2023-02-02T15:06:04;8.30;99.90
981;DHT22;479;53.514;9.994;2023-02-02T15:08:34;8.30;99.90
981;DHT22;479;53.514;9.994;2023-02-02T15:11:04;8.10;99.90
981;DHT22;479;53.514;9.994;2023-02-02T15:13:50;8.00;99.90
981;DHT22;479;53.514;9.994;2023-02-02T15:16:22;8.30;99.90
981;DHT22;479;53.514;9.994;2023-02-02T15:18:58;8.20;99.90
981;DHT22;479;53.514;9.994;2023-02-02T15:21:31;8.20;99.90
981;DHT22;479;53.514;9.994;2023-02-02T15:24:02;8.10;99.90
981;DHT22;479;53.514;9.994;2023-02-02T15:26:35;8.00;99.90
981;DHT22;479;53.514;9.994;2023-02-02T15:29:12;8.10;99.90
981;DHT22;479;53.514;9.994;2023-02-02T15:31:41;8.10;99.90
981;DHT22;479;53.514;9.994;2023-02-02T15:34:13;8.00;99.90
981;DHT22;479;53.514;9.994;2023-02-02T15:36:43;8.00;99.90
981;DHT22;479;53.514;9.994;2023-02-02T15:39:21;7.90;99.90
981;DHT22;479;53.514;9.994;2023-02-02T15:41:52;8.00;99.90
981;DHT22;479;53.514;9.994;2023-02-02T15:44:39;7.90;99.90
981;DHT22;479;53.514;9.994;2023-02-02T15:47:11;7.80;99.90
981;DHT22;479;53.514;9.994;2023-02-02T15:49:38;7.70;99.90
981;DHT22;479;53.514;9.994;2023-02-02T15:52:12;7.60;99.90
981;DHT22;479;53.514;9.994;2023-02-02T15:54:50;7.60;99.90
981;DHT22;479;53.514;9.994;2023-02-02T15:57:27;7.50;99.90
981;DHT22;479;53.514;9.994;2023-02-02T15:59:54;7.40;99.90
981;DHT22;479;53.514;9.994;2023-02-02T16:02:27;7.70;99.90
981;DHT22;479;53.514;9.994;2023-02-02T16:04:55;7.50;99.90
981;DHT22;479;53.514;9.994;2023-02-02T16:07:27;7.50;99.90
981;DHT22;479;53.514;9.994;2023-02-02T16:10:01;7.60;99.90
981;DHT22;479;53.514;9.994;2023-02-02T16:12:29;7.70;99.90
981;DHT22;479;53.514;9.994;2023-02-02T16:14:56;7.70;99.90
981;DHT22;479;53.514;9.994;2023-02-02T16:17:27;7.50;99.90
981;DHT22;479;53.514;9.994;2023-02-02T16:19:58;7.50;99.90
981;DHT22;479;53.514;9.994;2023-02-02T16:22:28;7.50;99.90
981;DHT22;479;53.514;9.994;2023-02-02T16:25:00;7.40;99.90
981;DHT22;479;53.514;9.994;2023-02-02T16:27:29;7.30;99.90
981;DHT22;479;53.514;9.994;2023-02-02T16:30:00;7.40;99.90
981;DHT22;479;53.514;9.994;2023-02-02T16:32:31;7.20;99.90
981;DHT22;479;53.514;9.994;2023-02-02T16:34:59;7.00;99.90
981;DHT22;479;53.514;9.994;2023-02-02T16:37:29;6.90;99.90
981;DHT22;479;53.514;9.994;2023-02-02T16:40:16;6.80;99.90
981;DHT22;479;53.514;9.994;2023-02-02T16:42:43;6.80;99.90
981;DHT22;479;53.514;9.994;2023-02-02T16:45:31;6.80;99.90
981;DHT22;479;53.514;9.994;2023-02-02T16:48:19;6.70;99.90
981;DHT22;479;53.514;9.994;2023-02-02T16:51:02;6.70;99.90
981;DHT22;479;53.514;9.994;2023-02-02T16:53:30;6.90;99.90
981;DHT22;479;53.514;9.994;2023-02-02T16:55:58;7.00;99.90
981;DHT22;479;53.514;9.994;2023-02-02T16:58:26;7.10;99.90
981;DHT22;479;53.514;9.994;2023-02-02T17:00:59;7.10;99.90
981;DHT22;479;53.514;9.994;2023-02-02T17:03:31;7.00;99.90
981;DHT22;479;53.514;9.994;2023-02-02T17:05:59;6.80;99.90
981;DHT22;479;53.514;9.994;2023-02-02T17:08:30;6.70;99.90
981;DHT22;479;53.514;9.994;2023-02-02T17:11:04;6.50;99.90
981;DHT22;479;53.514;9.994;2023-02-02T17:13:39;6.40;99.90
981;DHT22;479;53.514;9.994;2023-02-02T17:16:10;6.40;99.90
981;DHT22;479;53.514;9.994;2023-02-02T17:18:37;6.30;99.90
981;DHT22;479;53.514;9.994;2023-02-02T17:21:05;6.30;99.90
981;DHT22;479;53.514;9.994;2023-02-02T17:23:33;6.40;99.90
981;DHT22;479;53.514;9.994;2023-02-02T17:26:05;6.50;99.90
981;DHT22;479;53.514;9.994;2023-02-02T17:28:33;6.50;99.90
981;DHT22;479;53.514;9.994;2023-02-02T17:31:02;6.40;99.90
981;DHT22;479;53.514;9.994;2023-02-02T17:33:33;6.40;99.90
981;DHT22;479;53.514;9.994;2023-02-02T17:36:00;6.30;99.90